Bayview Gardens, Illinois
Current Conditions -  °F | °C
As of 1:54 AM on Friday 24 Oct 2014 (Local Time) from KPIA Reporting Station
Scattered Clouds Scattered Clouds  
Wind Chill: 54°   Ceiling: Unl
Heat Index: 54°   Visibility: 10mi
Dew Point: 46°   Wind: 3mph
Humidity: 75%   Direction: 220°SW
Pressure: 30.06"   Gusts: NA
Location:  40.7043°N, 89.529°W
Report Text: KPIA 240654Z 22003KT 10SM FEW020 SCT043 12/08 A3006 RMK AO2 SLP179 T01220078
Loading
Personal Weather Stations






























Interactive Weather Map
Tropical Storm Tracking
New forecast layout! Learn more

10-Day Weather Forecast

Advertisements
Track Severe Weather on mobile